createdAt,value
2019-04-30T00:00:06.165Z,72.10
2019-04-30T00:01:07.407Z,74.30
2019-04-30T00:02:05.686Z,73.60
2019-04-30T00:03:06.781Z,75.40
2019-04-30T00:04:05.751Z,75.60
2019-04-30T00:05:05.470Z,75.50
2019-04-30T00:06:07.230Z,72.10
2019-04-30T00:07:05.637Z,70.50
2019-04-30T00:08:05.814Z,71.00
2019-04-30T00:09:05.373Z,72.50
2019-04-30T00:10:06.024Z,65.90
2019-04-30T00:11:05.360Z,62.60
2019-04-30T00:12:05.609Z,60.00
2019-04-30T00:13:05.999Z,64.90
2019-04-30T00:14:05.629Z,59.50
2019-04-30T00:15:06.086Z,59.80
2019-04-30T00:16:05.368Z,59.40
2019-04-30T00:17:03.632Z,62.60
2019-04-30T00:18:05.415Z,63.50
2019-04-30T00:19:03.437Z,62.00
2019-04-30T00:20:05.208Z,63.30
2019-04-30T00:21:05.266Z,65.60
2019-04-30T00:22:03.143Z,63.10
2019-04-30T00:23:05.036Z,63.30
2019-04-30T00:24:06.257Z,61.60
2019-04-30T00:25:02.846Z,59.90
2019-04-30T00:26:06.277Z,60.50
2019-04-30T00:27:02.665Z,59.40
2019-04-30T00:28:05.248Z,61.20
2019-04-30T00:29:02.456Z,64.00
2019-04-30T00:30:07.309Z,64.40
2019-04-30T00:31:02.260Z,61.60
2019-04-30T00:32:04.430Z,63.40
2019-04-30T00:33:02.068Z,65.20
2019-04-30T00:34:01.963Z,65.30
2019-04-30T00:35:01.869Z,61.10
2019-04-30T00:36:01.766Z,66.70
2019-04-30T00:37:01.682Z,66.40
2019-04-30T00:38:01.569Z,66.30
2019-04-30T00:39:01.475Z,65.50
2019-04-30T00:40:01.376Z,66.50
2019-04-30T00:41:01.907Z,68.40
2019-04-30T00:42:01.187Z,66.30
2019-04-30T00:43:05.278Z,68.30
2019-04-30T00:44:00.978Z,64.30
2019-04-30T00:45:06.679Z,68.20
2019-04-30T00:46:00.780Z,71.70
2019-04-30T00:47:05.031Z,69.90
2019-04-30T00:48:00.596Z,65.00
2019-04-30T00:49:09.299Z,68.70
2019-04-30T00:50:00.546Z,74.00
2019-04-30T00:51:00.286Z,76.30
2019-04-30T00:52:00.206Z,75.10
2019-04-30T00:53:00.090Z,76.50
2019-04-30T00:53:59.988Z,75.20
2019-04-30T00:55:00.370Z,77.40
2019-04-30T00:55:59.796Z,79.80
2019-04-30T00:57:06.300Z,72.80
2019-04-30T00:57:59.594Z,68.40
2019-04-30T00:59:02.431Z,67.50
2019-04-30T00:59:59.408Z,65.70
2019-04-30T01:00:59.805Z,64.70
2019-04-30T01:01:59.213Z,65.30
2019-04-30T01:03:00.807Z,64.10
2019-04-30T01:03:59.001Z,67.20
2019-04-30T01:05:05.258Z,66.00
2019-04-30T01:05:58.801Z,71.60
2019-04-30T01:07:00.280Z,70.40
2019-04-30T01:07:58.622Z,74.00
2019-04-30T01:09:05.375Z,70.20
2019-04-30T01:09:58.406Z,73.60
2019-04-30T01:10:59.753Z,74.90
2019-04-30T01:11:58.211Z,69.10
2019-04-30T01:13:01.760Z,75.20
2019-04-30T01:13:59.081Z,67.40
2019-04-30T01:14:58.999Z,63.00
2019-04-30T01:15:58.815Z,56.90
2019-04-30T01:16:59.430Z,58.50
2019-04-30T01:17:59.296Z,56.40
2019-04-30T01:18:58.642Z,56.80
2019-04-30T01:19:59.160Z,54.90
2019-04-30T01:20:58.648Z,60.70
2019-04-30T01:21:57.221Z,60.90
2019-04-30T01:22:58.679Z,63.40
2019-04-30T01:23:59.035Z,59.20
2019-04-30T01:25:02.850Z,58.90
2019-04-30T01:25:58.476Z,55.20
2019-04-30T01:27:00.774Z,57.40
2019-04-30T01:27:58.491Z,58.40
2019-04-30T01:29:00.528Z,56.20
2019-04-30T01:29:56.426Z,56.80
2019-04-30T01:30:58.732Z,54.60
2019-04-30T01:31:56.229Z,58.10
2019-04-30T01:32:56.931Z,64.60
2019-04-30T01:33:56.028Z,60.00
2019-04-30T01:34:55.929Z,59.30
2019-04-30T01:35:55.831Z,56.60
2019-04-30T01:36:55.733Z,65.10
2019-04-30T01:37:55.758Z,64.60
2019-04-30T01:38:55.535Z,61.20
2019-04-30T01:39:55.435Z,62.10
2019-04-30T01:40:55.335Z,67.50
2019-04-30T01:41:55.235Z,68.90
2019-04-30T01:42:55.151Z,65.70
2019-04-30T01:43:55.037Z,66.60
2019-04-30T01:44:55.045Z,69.50
2019-04-30T01:45:54.837Z,68.90
2019-04-30T01:46:54.740Z,64.20
2019-04-30T01:47:54.789Z,72.00
2019-04-30T01:48:54.545Z,69.10
2019-04-30T01:49:55.811Z,70.80
2019-04-30T01:50:54.342Z,69.30
2019-04-30T01:51:57.450Z,72.60
2019-04-30T01:52:54.161Z,74.70
2019-04-30T01:53:54.047Z,76.80
2019-04-30T01:54:53.945Z,67.00
2019-04-30T01:55:53.848Z,72.70
2019-04-30T01:56:53.752Z,71.80
2019-04-30T01:57:53.649Z,69.00
2019-04-30T01:58:53.690Z,76.20
2019-04-30T01:59:53.456Z,70.10
2019-04-30T02:00:53.356Z,71.90
2019-04-30T02:01:53.252Z,66.60
2019-04-30T02:02:53.155Z,69.60
2019-04-30T02:03:53.071Z,70.80
2019-04-30T02:04:52.956Z,69.80
2019-04-30T02:05:52.965Z,75.20
2019-04-30T02:06:52.761Z,77.90
2019-04-30T02:07:52.661Z,81.00
2019-04-30T02:08:52.576Z,78.30
2019-04-30T02:09:52.459Z,78.50
2019-04-30T02:10:52.361Z,70.30
2019-04-30T02:11:52.264Z,69.00
2019-04-30T02:12:52.280Z,68.10
2019-04-30T02:13:52.081Z,65.00
2019-04-30T02:14:51.975Z,66.90
2019-04-30T02:15:51.866Z,63.40
2019-04-30T02:16:51.774Z,58.80
2019-04-30T02:17:51.670Z,58.70
2019-04-30T02:18:51.588Z,57.30
2019-04-30T02:19:56.524Z,60.70
2019-04-30T02:20:51.373Z,60.00
2019-04-30T02:21:51.274Z,59.90
2019-04-30T02:22:51.174Z,56.20
2019-04-30T02:23:51.089Z,56.70
2019-04-30T02:24:50.977Z,59.60
2019-04-30T02:25:50.880Z,54.30
2019-04-30T02:26:50.885Z,56.50
2019-04-30T02:27:50.679Z,57.90
2019-04-30T02:28:50.596Z,58.40
2019-04-30T02:29:50.486Z,59.80
2019-04-30T02:30:50.804Z,58.40
2019-04-30T02:31:50.562Z,56.20
2019-04-30T02:32:52.658Z,54.80
2019-04-30T02:33:50.365Z,56.60
2019-04-30T02:34:49.988Z,55.30
2019-04-30T02:35:50.190Z,55.40
2019-04-30T02:36:50.027Z,56.10
2019-04-30T02:37:50.550Z,56.50
2019-04-30T02:38:49.618Z,58.30
2019-04-30T02:39:50.328Z,59.50
2019-04-30T02:40:49.998Z,62.80
2019-04-30T02:41:50.574Z,66.40
2019-04-30T02:42:49.780Z,70.10
2019-04-30T02:43:49.795Z,76.70
2019-04-30T02:44:50.365Z,74.50
2019-04-30T02:45:49.812Z,75.70
2019-04-30T02:46:50.455Z,80.30
2019-04-30T02:47:49.995Z,79.70
2019-04-30T02:48:50.450Z,77.50
2019-04-30T02:49:50.026Z,79.20
2019-04-30T02:50:49.142Z,76.90
2019-04-30T02:51:49.913Z,83.30
2019-04-30T02:52:50.477Z,80.80
2019-04-30T02:53:50.193Z,76.30
2019-04-30T02:54:49.974Z,76.20
2019-04-30T02:55:49.929Z,76.10
2019-04-30T02:56:50.440Z,71.70
2019-04-30T02:57:49.748Z,67.20
2019-04-30T02:58:50.186Z,69.70
2019-04-30T02:59:49.675Z,69.00
2019-04-30T03:00:49.606Z,69.10
2019-04-30T03:01:49.918Z,63.70
2019-04-30T03:02:47.199Z,61.40
2019-04-30T03:03:49.497Z,54.70
2019-04-30T03:04:47.013Z,57.30
2019-04-30T03:05:49.547Z,55.70
2019-04-30T03:06:46.797Z,51.30
2019-04-30T03:07:46.694Z,47.70
2019-04-30T03:08:46.597Z,47.40
2019-04-30T03:09:46.512Z,48.50
2019-04-30T03:10:46.396Z,45.20
2019-04-30T03:11:46.297Z,44.00
2019-04-30T03:12:46.197Z,36.00
2019-04-30T03:13:46.094Z,36.30
2019-04-30T03:14:46.010Z,38.60
2019-04-30T03:15:45.897Z,38.70
2019-04-30T03:16:45.817Z,39.30
2019-04-30T03:17:45.699Z,38.10
2019-04-30T03:18:45.594Z,35.60
2019-04-30T03:19:45.509Z,40.50
2019-04-30T03:20:45.395Z,39.90
2019-04-30T03:21:45.296Z,38.50
2019-04-30T03:22:45.208Z,38.70
2019-04-30T03:23:45.096Z,39.40
2019-04-30T03:24:45.013Z,35.60
2019-04-30T03:25:44.892Z,34.00
2019-04-30T03:26:44.792Z,33.40
2019-04-30T03:27:44.693Z,33.90
2019-04-30T03:28:44.593Z,32.30
2019-04-30T03:29:44.513Z,31.30
2019-04-30T03:30:44.423Z,32.20
2019-04-30T03:31:45.693Z,32.80
2019-04-30T03:32:50.317Z,34.60
2019-04-30T03:33:44.126Z,35.60
2019-04-30T03:34:44.016Z,35.30
2019-04-30T03:35:47.825Z,36.10
2019-04-30T03:36:43.790Z,37.90
2019-04-30T03:37:44.006Z,38.30
2019-04-30T03:38:43.588Z,37.50
2019-04-30T03:39:43.502Z,36.60
2019-04-30T03:40:43.386Z,35.80
2019-04-30T03:41:43.301Z,37.70
2019-04-30T03:42:43.184Z,39.90
2019-04-30T03:43:43.084Z,39.70
2019-04-30T03:44:42.986Z,38.00
2019-04-30T03:45:42.896Z,41.30
2019-04-30T03:46:42.793Z,42.20
2019-04-30T03:47:43.162Z,46.00
2019-04-30T03:48:42.584Z,44.60
2019-04-30T03:49:42.485Z,43.90
2019-04-30T03:50:55.534Z,48.70
2019-04-30T03:51:42.284Z,51.10
2019-04-30T03:52:42.178Z,51.90
2019-04-30T03:53:42.659Z,53.40
2019-04-30T03:54:41.978Z,54.50
2019-04-30T03:55:41.893Z,54.90
2019-04-30T03:56:41.777Z,53.60
2019-04-30T03:57:41.676Z,52.90
2019-04-30T03:58:41.575Z,53.90
2019-04-30T03:59:41.473Z,52.40
2019-04-30T04:00:42.494Z,49.90
2019-04-30T04:01:41.281Z,52.80
2019-04-30T04:02:41.178Z,55.20
2019-04-30T04:03:42.281Z,52.40
2019-04-30T04:04:41.080Z,54.20
2019-04-30T04:05:40.886Z,54.20
2019-04-30T04:06:40.779Z,49.10
2019-04-30T04:07:40.678Z,53.50
2019-04-30T04:08:43.215Z,51.30
2019-04-30T04:09:40.468Z,52.50
2019-04-30T04:10:40.554Z,54.30
2019-04-30T04:11:40.383Z,51.40
2019-04-30T04:12:40.170Z,52.60
2019-04-30T04:13:40.178Z,48.50
2019-04-30T04:14:39.968Z,52.90
2019-04-30T04:15:40.191Z,53.90
2019-04-30T04:16:41.084Z,53.50
2019-04-30T04:17:39.930Z,54.70
2019-04-30T04:18:40.191Z,49.90
2019-04-30T04:19:39.465Z,50.40
2019-04-30T04:20:39.553Z,48.80
2019-04-30T04:21:39.445Z,48.90
2019-04-30T04:22:40.318Z,49.40
2019-04-30T04:23:39.933Z,53.10
2019-04-30T04:24:40.109Z,52.30
2019-04-30T04:25:39.933Z,50.70
2019-04-30T04:26:40.809Z,51.00
2019-04-30T04:27:39.308Z,52.80
2019-04-30T04:28:43.054Z,54.70
2019-04-30T04:29:40.341Z,53.10
2019-04-30T04:30:39.221Z,55.20
2019-04-30T04:31:39.532Z,54.10
2019-04-30T04:32:40.663Z,52.60
2019-04-30T04:33:39.556Z,52.60
2019-04-30T04:34:40.025Z,53.00
2019-04-30T04:35:39.281Z,52.30
2019-04-30T04:36:39.960Z,54.10
2019-04-30T04:37:39.439Z,55.40
2019-04-30T04:38:40.053Z,54.60
2019-04-30T04:39:38.916Z,56.90
2019-04-30T04:40:39.849Z,54.40
2019-04-30T04:41:39.728Z,54.20
2019-04-30T04:42:39.611Z,51.70
2019-04-30T04:43:37.059Z,51.90
2019-04-30T04:44:39.327Z,51.00
2019-04-30T04:45:36.875Z,49.20
2019-04-30T04:46:36.861Z,51.50
2019-04-30T04:47:36.657Z,48.50
2019-04-30T04:48:38.978Z,48.40
2019-04-30T04:49:36.451Z,43.20
2019-04-30T04:50:36.381Z,46.00
2019-04-30T04:51:39.409Z,45.00
2019-04-30T04:52:36.153Z,45.20
2019-04-30T04:53:36.161Z,48.10
2019-04-30T04:54:35.953Z,46.20
2019-04-30T04:55:35.854Z,41.00
2019-04-30T04:56:35.767Z,44.60
2019-04-30T04:57:35.650Z,45.10
2019-04-30T04:58:35.548Z,39.90
2019-04-30T04:59:35.456Z,39.70
2019-04-30T05:00:35.482Z,39.50
2019-04-30T05:01:35.264Z,41.70
2019-04-30T05:02:35.150Z,40.90
2019-04-30T05:03:35.049Z,40.60
2019-04-30T05:04:34.949Z,42.10
2019-04-30T05:05:34.850Z,41.10
2019-04-30T05:06:34.769Z,39.30
2019-04-30T05:07:34.754Z,41.00
2019-04-30T05:08:34.547Z,40.90
2019-04-30T05:09:34.447Z,38.80
2019-04-30T05:10:34.346Z,39.30
2019-04-30T05:11:34.263Z,39.10
2019-04-30T05:12:34.148Z,38.80
2019-04-30T05:13:34.734Z,39.00
2019-04-30T05:14:34.061Z,41.20
2019-04-30T05:15:33.850Z,39.50
2019-04-30T05:16:34.511Z,38.20
2019-04-30T05:17:33.647Z,38.60
2019-04-30T05:18:33.590Z,40.50
2019-04-30T05:19:33.449Z,36.30
2019-04-30T05:20:33.347Z,37.50
2019-04-30T05:21:42.077Z,39.00
2019-04-30T05:22:33.149Z,35.30
2019-04-30T05:23:33.051Z,37.10
2019-04-30T05:24:32.951Z,37.70
2019-04-30T05:25:32.851Z,39.80
2019-04-30T05:26:32.765Z,39.30
2019-04-30T05:27:32.653Z,37.80
2019-04-30T05:28:32.552Z,33.60
2019-04-30T05:29:32.451Z,33.00
2019-04-30T05:30:32.356Z,34.50
2019-04-30T05:31:32.269Z,32.60
2019-04-30T05:32:32.157Z,33.80
2019-04-30T05:33:32.057Z,32.10
2019-04-30T05:34:31.958Z,32.00
2019-04-30T05:35:31.856Z,31.50
2019-04-30T05:36:31.776Z,30.10
2019-04-30T05:37:31.657Z,31.90
2019-04-30T05:38:31.560Z,31.20
2019-04-30T05:39:31.462Z,31.80
2019-04-30T05:40:31.359Z,31.60
2019-04-30T05:41:31.276Z,31.40
2019-04-30T05:42:31.163Z,30.20
2019-04-30T05:43:31.067Z,30.10
2019-04-30T05:44:30.965Z,28.80
2019-04-30T05:45:33.557Z,26.60
2019-04-30T05:46:30.788Z,26.70
2019-04-30T05:47:30.674Z,26.70
2019-04-30T05:48:30.572Z,27.00
2019-04-30T05:49:30.476Z,25.50
2019-04-30T05:50:30.375Z,26.60
2019-04-30T05:51:30.293Z,27.60
2019-04-30T05:52:30.179Z,24.50
2019-04-30T05:53:30.084Z,25.40
2019-04-30T05:54:29.980Z,25.40
2019-04-30T05:55:29.883Z,24.60
2019-04-30T05:56:30.444Z,24.40
2019-04-30T05:57:29.687Z,24.70
2019-04-30T05:58:30.104Z,24.10
2019-04-30T05:59:29.491Z,23.20
2019-04-30T06:00:30.555Z,22.60
2019-04-30T06:01:29.638Z,22.00
2019-04-30T06:02:33.580Z,20.50
2019-04-30T06:03:32.985Z,20.10
2019-04-30T06:04:29.462Z,18.90
2019-04-30T06:05:28.900Z,18.90
2019-04-30T06:06:29.122Z,17.50
2019-04-30T06:07:29.946Z,18.50
2019-04-30T06:08:29.217Z,17.00
2019-04-30T06:09:31.619Z,16.00
2019-04-30T06:10:29.435Z,16.70
2019-04-30T06:11:29.252Z,15.90
2019-04-30T06:12:28.469Z,13.50
2019-04-30T06:13:28.749Z,13.70
2019-04-30T06:14:28.656Z,13.70
2019-04-30T06:15:29.090Z,13.20
2019-04-30T06:16:29.694Z,12.90
2019-04-30T06:17:29.347Z,14.70
2019-04-30T06:18:28.707Z,13.80
2019-04-30T06:19:29.240Z,16.20
2019-04-30T06:20:28.771Z,15.30
2019-04-30T06:21:29.377Z,13.30
2019-04-30T06:22:28.789Z,12.60
2019-04-30T06:23:29.262Z,11.80
2019-04-30T06:24:28.611Z,12.10
2019-04-30T06:25:32.102Z,11.60
2019-04-30T06:26:26.849Z,11.40
2019-04-30T06:27:29.011Z,11.40
2019-04-30T06:28:26.655Z,11.90
2019-04-30T06:29:26.556Z,12.20
2019-04-30T06:30:26.567Z,12.40
2019-04-30T06:31:34.701Z,12.60
2019-04-30T06:32:26.278Z,12.20
2019-04-30T06:33:26.166Z,13.20
2019-04-30T06:34:26.085Z,13.00
2019-04-30T06:35:25.971Z,13.70
2019-04-30T06:36:25.874Z,13.30
2019-04-30T06:37:25.901Z,12.00
2019-04-30T06:38:25.682Z,11.90
2019-04-30T06:39:25.583Z,11.30
2019-04-30T06:40:25.487Z,11.60
2019-04-30T06:41:25.390Z,11.40
2019-04-30T06:42:25.308Z,11.10
2019-04-30T06:43:25.198Z,10.50
2019-04-30T06:44:34.962Z,10.50
2019-04-30T06:45:25.001Z,9.80
2019-04-30T06:46:24.908Z,10.30
2019-04-30T06:47:32.837Z,9.80
2019-04-30T06:48:24.719Z,9.50
2019-04-30T06:49:24.625Z,9.80
2019-04-30T06:50:24.522Z,9.90
2019-04-30T06:51:24.531Z,9.80
2019-04-30T06:52:24.345Z,9.80
2019-04-30T06:53:24.237Z,9.80
2019-04-30T06:54:24.147Z,9.40
2019-04-30T06:55:24.045Z,9.70
2019-04-30T06:56:23.953Z,9.50
2019-04-30T06:57:23.868Z,8.90
2019-04-30T06:58:23.868Z,9.10
2019-04-30T06:59:23.665Z,9.40
2019-04-30T07:00:32.778Z,9.20
2019-04-30T07:01:23.474Z,9.50
2019-04-30T07:02:23.395Z,9.20
2019-04-30T07:03:23.283Z,9.20
2019-04-30T07:04:23.188Z,8.90
2019-04-30T07:05:23.198Z,8.60
2019-04-30T07:06:29.772Z,8.30
2019-04-30T07:07:26.909Z,9.20
2019-04-30T07:08:22.812Z,8.90
2019-04-30T07:09:26.621Z,8.70
2019-04-30T07:10:22.622Z,7.80
2019-04-30T07:11:22.529Z,7.70
2019-04-30T07:12:27.683Z,7.30
2019-04-30T07:13:22.353Z,7.30
2019-04-30T07:14:22.248Z,7.40
2019-04-30T07:15:22.150Z,8.30
2019-04-30T07:16:22.060Z,7.90
2019-04-30T07:17:21.963Z,8.30
2019-04-30T07:18:21.881Z,8.20
2019-04-30T07:19:31.819Z,8.40
2019-04-30T07:20:21.682Z,8.30
2019-04-30T07:21:21.586Z,8.00
2019-04-30T07:22:36.698Z,8.20
2019-04-30T07:23:21.414Z,8.20
2019-04-30T07:24:21.306Z,7.70
2019-04-30T07:25:21.214Z,8.20
2019-04-30T07:26:24.452Z,7.80
2019-04-30T07:27:24.140Z,8.20
2019-04-30T07:28:20.944Z,8.70
2019-04-30T07:29:20.834Z,8.00
2019-04-30T07:30:20.741Z,7.80
2019-04-30T07:31:20.649Z,8.00
2019-04-30T07:32:20.682Z,8.70
2019-04-30T07:33:20.956Z,7.70
2019-04-30T07:34:20.388Z,8.00
2019-04-30T07:35:20.276Z,8.70
2019-04-30T07:36:20.181Z,9.30
2019-04-30T07:37:24.125Z,9.10
2019-04-30T07:38:20.010Z,8.80
2019-04-30T07:39:23.410Z,11.60
2019-04-30T07:40:19.808Z,13.40
2019-04-30T07:41:19.717Z,10.60
2019-04-30T07:42:19.622Z,10.70
2019-04-30T07:43:19.542Z,10.90
2019-04-30T07:44:31.216Z,13.80
2019-04-30T07:45:19.657Z,9.80
2019-04-30T07:46:20.022Z,9.20
2019-04-30T07:47:19.690Z,9.20
2019-04-30T07:48:25.872Z,8.10
2019-04-30T07:49:20.546Z,8.60
2019-04-30T07:50:21.572Z,8.50
2019-04-30T07:51:20.927Z,9.40
2019-04-30T07:52:21.296Z,7.60
2019-04-30T07:53:18.814Z,7.30
2019-04-30T07:54:19.013Z,7.60
2019-04-30T07:55:19.654Z,7.40
2019-04-30T07:56:25.710Z,8.10
2019-04-30T07:57:19.237Z,6.80
2019-04-30T07:58:20.525Z,7.60
2019-04-30T07:59:20.127Z,6.80
2019-04-30T08:00:19.315Z,6.80
2019-04-30T08:01:19.582Z,7.20
2019-04-30T08:02:20.570Z,7.00
2019-04-30T08:03:20.587Z,7.30
2019-04-30T08:04:18.843Z,7.50
2019-04-30T08:05:19.287Z,7.20
2019-04-30T08:06:19.010Z,6.70
2019-04-30T08:07:17.740Z,6.80
2019-04-30T08:08:24.379Z,7.00
2019-04-30T08:09:21.879Z,6.90
2019-04-30T08:10:18.794Z,6.50
2019-04-30T08:11:23.910Z,6.90
2019-04-30T08:12:25.631Z,6.30
2019-04-30T08:13:17.249Z,6.60
2019-04-30T08:14:18.494Z,6.10
2019-04-30T08:15:16.560Z,6.80
2019-04-30T08:16:18.598Z,6.60
2019-04-30T08:17:16.376Z,6.70
2019-04-30T08:18:16.285Z,6.80
2019-04-30T08:19:16.208Z,6.40
2019-04-30T08:20:16.103Z,6.90
2019-04-30T08:21:16.010Z,6.20
2019-04-30T08:22:15.919Z,6.40
2019-04-30T08:23:31.485Z,6.50
2019-04-30T08:24:15.737Z,6.30
2019-04-30T08:25:15.681Z,6.40
2019-04-30T08:26:15.553Z,6.50
2019-04-30T08:27:15.464Z,6.60
2019-04-30T08:28:15.374Z,6.70
2019-04-30T08:29:15.285Z,6.30
2019-04-30T08:30:25.634Z,6.80
2019-04-30T08:31:15.631Z,7.00
2019-04-30T08:32:15.007Z,6.80
2019-04-30T08:33:14.916Z,7.00
2019-04-30T08:34:14.824Z,7.00
2019-04-30T08:35:14.762Z,6.90
2019-04-30T08:36:14.648Z,7.20
2019-04-30T08:37:17.586Z,6.90
2019-04-30T08:38:14.461Z,6.90
2019-04-30T08:39:14.369Z,6.80
2019-04-30T08:40:14.292Z,7.00
2019-04-30T08:41:14.187Z,7.20
2019-04-30T08:42:14.097Z,7.40
2019-04-30T08:43:14.007Z,7.00
2019-04-30T08:44:13.915Z,6.80
2019-04-30T08:45:13.833Z,6.70
2019-04-30T08:46:13.735Z,6.80
2019-04-30T08:47:13.642Z,6.60
2019-04-30T08:48:13.557Z,6.90
2019-04-30T08:49:13.651Z,6.40
2019-04-30T08:50:13.444Z,7.00
2019-04-30T08:51:14.086Z,6.90
2019-04-30T08:52:13.190Z,6.40
2019-04-30T08:53:26.289Z,7.20
2019-04-30T08:54:13.007Z,6.90
2019-04-30T08:55:16.748Z,6.80
2019-04-30T08:56:12.827Z,6.60
2019-04-30T08:57:12.734Z,7.00
2019-04-30T08:58:15.166Z,6.70
2019-04-30T08:59:12.552Z,6.60
2019-04-30T09:00:14.963Z,6.40
2019-04-30T09:01:12.373Z,6.60
2019-04-30T09:02:15.836Z,6.70
2019-04-30T09:03:12.190Z,7.00
2019-04-30T09:04:12.099Z,7.10
2019-04-30T09:05:12.023Z,7.00
2019-04-30T09:06:11.922Z,6.90
2019-04-30T09:07:11.829Z,6.90
2019-04-30T09:08:11.737Z,6.70
2019-04-30T09:09:11.648Z,6.70
2019-04-30T09:10:11.574Z,7.00
2019-04-30T09:11:22.654Z,7.00
2019-04-30T09:12:11.379Z,6.60
2019-04-30T09:13:11.285Z,7.30
2019-04-30T09:14:11.196Z,7.10
2019-04-30T09:15:11.119Z,6.70
2019-04-30T09:16:11.016Z,6.80
2019-04-30T09:17:10.936Z,7.00
2019-04-30T09:18:12.643Z,6.30
2019-04-30T09:19:10.744Z,6.90
2019-04-30T09:20:11.094Z,7.30
2019-04-30T09:21:10.568Z,6.90
2019-04-30T09:22:15.019Z,7.00
2019-04-30T09:23:11.248Z,7.50
2019-04-30T09:24:10.295Z,7.10
2019-04-30T09:25:10.325Z,7.10
2019-04-30T09:26:10.116Z,6.90
2019-04-30T09:27:10.804Z,7.10
2019-04-30T09:28:09.937Z,7.00
2019-04-30T09:29:09.853Z,7.10
2019-04-30T09:30:10.382Z,6.50
2019-04-30T09:31:09.667Z,7.20
2019-04-30T09:32:09.683Z,6.60
2019-04-30T09:33:11.130Z,6.80
2019-04-30T09:34:17.172Z,6.90
2019-04-30T09:35:09.611Z,7.10
2019-04-30T09:36:09.332Z,6.70
2019-04-30T09:37:09.153Z,6.70
2019-04-30T09:38:09.235Z,6.30
2019-04-30T09:39:09.097Z,7.20
2019-04-30T09:40:17.638Z,7.00
2019-04-30T09:41:09.300Z,6.80
2019-04-30T09:42:09.264Z,6.60
2019-04-30T09:43:08.747Z,6.40
2019-04-30T09:44:10.030Z,6.30
2019-04-30T09:45:08.827Z,6.40
2019-04-30T09:46:18.969Z,6.60
2019-04-30T09:47:08.911Z,6.80
2019-04-30T09:48:09.411Z,6.70
2019-04-30T09:49:09.640Z,7.20
2019-04-30T09:50:09.139Z,7.30
2019-04-30T09:51:10.179Z,6.60
2019-04-30T09:52:09.072Z,7.10
2019-04-30T09:53:09.636Z,6.60
2019-04-30T09:54:11.688Z,6.80
2019-04-30T09:55:09.426Z,6.50
2019-04-30T09:56:09.421Z,6.70
2019-04-30T09:57:08.775Z,7.20
2019-04-30T09:58:16.215Z,7.20
2019-04-30T09:59:09.027Z,6.70
2019-04-30T10:00:08.955Z,8.10
2019-04-30T10:01:09.284Z,7.70
2019-04-30T10:02:09.156Z,7.20
2019-04-30T10:03:09.636Z,7.10
2019-04-30T10:04:07.027Z,7.10
2019-04-30T10:05:07.106Z,6.30
2019-04-30T10:06:06.571Z,6.20
2019-04-30T10:07:06.577Z,6.70
2019-04-30T10:08:06.378Z,6.40
2019-04-30T10:09:06.292Z,6.70
2019-04-30T10:10:08.874Z,6.60
2019-04-30T10:11:06.116Z,6.70
2019-04-30T10:12:06.040Z,6.20
2019-04-30T10:13:05.935Z,6.40
2019-04-30T10:14:05.959Z,6.70
2019-04-30T10:15:05.760Z,5.80
2019-04-30T10:16:05.675Z,6.20
2019-04-30T10:17:05.601Z,6.30
2019-04-30T10:18:05.496Z,7.90
2019-04-30T10:19:05.408Z,7.10
2019-04-30T10:20:05.444Z,7.80
2019-04-30T10:21:05.234Z,7.30
2019-04-30T10:22:05.167Z,6.40
2019-04-30T10:23:05.055Z,6.40
2019-04-30T10:24:14.826Z,7.30
2019-04-30T10:25:04.879Z,6.00
2019-04-30T10:26:04.791Z,5.70
2019-04-30T10:27:07.159Z,6.40
2019-04-30T10:28:04.624Z,6.60
2019-04-30T10:29:04.527Z,6.00
2019-04-30T10:30:04.438Z,7.00
2019-04-30T10:31:04.351Z,6.80
2019-04-30T10:32:04.280Z,7.20
2019-04-30T10:33:04.177Z,7.20
2019-04-30T10:34:04.089Z,6.50
2019-04-30T10:35:04.000Z,5.90
2019-04-30T10:36:03.914Z,6.40
2019-04-30T10:37:03.840Z,6.30
2019-04-30T10:38:03.737Z,6.20
2019-04-30T10:39:03.648Z,6.50
2019-04-30T10:40:03.562Z,6.40
2019-04-30T10:41:03.475Z,6.50
2019-04-30T10:42:03.402Z,5.90
2019-04-30T10:43:03.301Z,5.30
2019-04-30T10:44:03.211Z,5.50
2019-04-30T10:45:03.126Z,5.70
2019-04-30T10:46:03.037Z,7.00
2019-04-30T10:47:02.966Z,6.10
2019-04-30T10:48:02.860Z,6.50
2019-04-30T10:49:02.772Z,7.10
2019-04-30T10:50:02.687Z,6.40
2019-04-30T10:51:02.598Z,6.50
2019-04-30T10:52:02.513Z,7.40
2019-04-30T10:53:02.437Z,6.80
2019-04-30T10:54:02.336Z,6.30
2019-04-30T10:55:04.439Z,6.70
2019-04-30T10:56:02.161Z,6.30
2019-04-30T10:57:02.090Z,6.50
2019-04-30T10:58:01.987Z,6.40
2019-04-30T10:59:01.902Z,6.70
2019-04-30T11:00:01.815Z,6.50
2019-04-30T11:01:01.951Z,6.40
2019-04-30T11:02:01.640Z,6.00
2019-04-30T11:03:01.565Z,6.50
2019-04-30T11:04:01.466Z,6.70
2019-04-30T11:05:01.374Z,5.90
2019-04-30T11:06:01.287Z,6.60
2019-04-30T11:07:01.201Z,5.60
2019-04-30T11:08:01.128Z,5.70
2019-04-30T11:09:01.025Z,5.70
2019-04-30T11:10:00.942Z,5.90
2019-04-30T11:11:00.850Z,5.40
2019-04-30T11:12:03.021Z,5.90
2019-04-30T11:13:00.689Z,6.00
2019-04-30T11:14:00.586Z,5.90
2019-04-30T11:15:00.523Z,6.00
2019-04-30T11:16:12.175Z,6.10
2019-04-30T11:17:00.664Z,5.90
2019-04-30T11:18:00.458Z,5.80
2019-04-30T11:19:00.196Z,6.20
2019-04-30T11:20:00.264Z,5.70
2019-04-30T11:21:00.077Z,5.70
2019-04-30T11:22:00.155Z,6.30
2019-04-30T11:23:00.014Z,5.80
2019-04-30T11:23:59.853Z,6.30
2019-04-30T11:25:02.631Z,5.90
2019-04-30T11:26:00.434Z,6.00
2019-04-30T11:27:00.521Z,5.90
2019-04-30T11:27:59.811Z,5.60
2019-04-30T11:28:59.462Z,5.90
2019-04-30T11:30:03.189Z,6.00
2019-04-30T11:30:59.210Z,5.80
2019-04-30T11:31:59.157Z,6.40
2019-04-30T11:32:59.140Z,6.30
2019-04-30T11:33:58.839Z,6.40
2019-04-30T11:34:58.750Z,6.10
2019-04-30T11:36:03.098Z,6.00
2019-04-30T11:36:58.673Z,5.80
2019-04-30T11:37:58.502Z,5.70
2019-04-30T11:38:58.710Z,5.70
2019-04-30T11:39:58.319Z,6.30
2019-04-30T11:40:58.477Z,6.00
2019-04-30T11:41:58.162Z,5.30
2019-04-30T11:42:58.069Z,5.50
2019-04-30T11:43:59.446Z,5.30
2019-04-30T11:44:58.696Z,6.40
2019-04-30T11:46:00.069Z,5.80
2019-04-30T11:46:59.472Z,5.90
2019-04-30T11:48:00.402Z,5.70
2019-04-30T11:48:58.695Z,5.80
2019-04-30T11:49:57.453Z,6.40
2019-04-30T11:50:59.429Z,6.10
2019-04-30T11:51:57.297Z,5.70
2019-04-30T11:53:14.001Z,5.80
2019-04-30T11:53:59.200Z,5.80
2019-04-30T11:54:57.007Z,6.10
2019-04-30T11:55:59.086Z,6.30
2019-04-30T11:56:58.677Z,5.90
2019-04-30T11:57:56.876Z,6.10
2019-04-30T11:58:58.745Z,5.90
2019-04-30T11:59:56.575Z,6.00
2019-04-30T12:00:56.486Z,5.90
2019-04-30T12:01:56.400Z,6.30
2019-04-30T12:02:56.317Z,6.00
2019-04-30T12:03:56.244Z,6.30
2019-04-30T12:04:56.252Z,6.60
2019-04-30T12:05:56.073Z,6.30
2019-04-30T12:06:55.973Z,6.40
2019-04-30T12:07:55.881Z,5.90
2019-04-30T12:08:55.830Z,6.10
2019-04-30T12:09:55.712Z,5.80
2019-04-30T12:10:55.630Z,5.70
2019-04-30T12:11:55.638Z,6.20
2019-04-30T12:12:55.451Z,5.70
2019-04-30T12:13:55.379Z,6.00
2019-04-30T12:14:55.275Z,6.30
2019-04-30T12:15:55.190Z,6.00
2019-04-30T12:16:55.102Z,6.10
2019-04-30T12:17:55.019Z,5.60
2019-04-30T12:18:55.055Z,5.90
2019-04-30T12:19:54.860Z,6.20
2019-04-30T12:20:54.758Z,6.20
2019-04-30T12:21:54.669Z,6.10
2019-04-30T12:22:54.585Z,6.50
2019-04-30T12:23:54.514Z,6.50
2019-04-30T12:25:02.693Z,5.90
2019-04-30T12:25:54.430Z,6.20
2019-04-30T12:26:54.237Z,6.60
2019-04-30T12:27:54.149Z,6.60
2019-04-30T12:28:54.077Z,6.30
2019-04-30T12:29:53.976Z,6.00
2019-04-30T12:30:53.890Z,6.30
2019-04-30T12:31:53.806Z,6.10
2019-04-30T12:32:53.828Z,6.40
2019-04-30T12:33:53.643Z,6.70
2019-04-30T12:34:53.543Z,6.30
2019-04-30T12:35:53.453Z,6.60
2019-04-30T12:36:53.366Z,6.30
2019-04-30T12:37:53.282Z,6.80
2019-04-30T12:38:53.207Z,6.70
2019-04-30T12:39:53.215Z,6.10
2019-04-30T12:40:53.022Z,6.10
2019-04-30T12:41:52.931Z,6.40
2019-04-30T12:42:52.845Z,6.00
2019-04-30T12:43:52.763Z,5.80
2019-04-30T12:44:52.684Z,6.20
2019-04-30T12:46:02.214Z,6.20
2019-04-30T12:46:52.494Z,6.30
2019-04-30T12:47:52.415Z,5.90
2019-04-30T12:48:52.324Z,5.60
2019-04-30T12:49:52.253Z,5.90
2019-04-30T12:50:52.149Z,6.10
2019-04-30T12:51:52.061Z,6.20
2019-04-30T12:52:51.982Z,5.90
2019-04-30T12:53:51.888Z,6.00
2019-04-30T12:54:51.816Z,6.80
2019-04-30T12:55:51.711Z,6.70
2019-04-30T12:56:51.625Z,6.40
2019-04-30T12:57:58.627Z,6.00
2019-04-30T12:58:51.457Z,5.80
2019-04-30T12:59:51.380Z,6.40
2019-04-30T13:00:51.277Z,6.40
2019-04-30T13:01:51.190Z,6.50
2019-04-30T13:02:51.102Z,6.40